Grizzly Air Cargo 5370


PAKN
King Salmon Airport
King Salmon, Alaska, US
PACD
Cold Bay Airport
Cold Bay, Alaska, US

Activity Log

Date Flight Route Aircraft Duration
No Flights Yet

Route Details

Aircraft Information
Primary: Saab 340AF
Backup: Not Available
Route Data
Distance: 302nm
Sched. Duration: 1h 50m
Avg. Duration: 0h 00m (-150m)
Times Flown: 0
Recm'd Route: AKN J115 CDB
Planned Altitude: 24,000ft
Origin Wx: PAKN 272354Z 35004KT 10SM OVC015 M11/M17 A2979 RMK AO2 SLP088 T11111167 11106 21133 53009
Dest. Wx: PACD 272353Z 17008KT 10SM OVC040 02/00 A2975 RMK AO2 SLP075 T00220000 10022 21017 53015
Notes:

Financial History
Total Freight: 0lbs
Average Load: 0lbs/flt
Fuel Used: 0lbs
Avg. Fuel Used: 0lbs/flt
Fuel Expense: $0
Avg. Fuel Expense: $0
Avg. Fuel Cost: $0/lbs
Total Gross Income: $0
Pilot Pay: $0
Total Expenses: $0
Total Revenue: $0
Average Revenue: $0